createdAt,value
2019-03-22T00:00:46.128Z,96401.33
2019-03-22T00:03:14.241Z,96390.82
2019-03-22T00:05:42.248Z,96394.55
2019-03-22T00:08:10.224Z,96391.33
2019-03-22T00:10:38.298Z,96397.13
2019-03-22T00:13:06.389Z,96393.73
2019-03-22T00:15:34.432Z,96394.89
2019-03-22T00:18:02.480Z,96390.26
2019-03-22T00:20:30.638Z,96386.88
2019-03-22T00:22:58.628Z,96388.41
2019-03-22T00:25:26.710Z,96380.39
2019-03-22T00:27:54.722Z,96382.13
2019-03-22T00:30:22.653Z,96384.06
2019-03-22T00:32:50.713Z,96389.69
2019-03-22T00:35:18.783Z,96378.55
2019-03-22T00:37:46.888Z,96379.92
2019-03-22T00:40:14.986Z,96389.73
2019-03-22T00:42:43.074Z,96388.02
2019-03-22T00:45:11.518Z,96380.55
2019-03-22T00:47:39.589Z,96384.93
2019-03-22T00:50:07.679Z,96385.46
2019-03-22T00:52:35.647Z,96387.44
2019-03-22T00:55:04.020Z,96382.27
2019-03-22T00:57:32.043Z,96381.89
2019-03-22T00:59:59.992Z,96391.44
2019-03-22T01:02:28.134Z,96387.79
2019-03-22T01:04:56.130Z,96384.94
2019-03-22T01:07:24.189Z,96384.94
2019-03-22T01:09:52.186Z,96383.00
2019-03-22T01:12:20.347Z,96383.00
2019-03-22T01:14:48.451Z,96387.23
2019-03-22T01:17:16.513Z,96377.27
2019-03-22T01:19:44.669Z,96382.06
2019-03-22T01:22:12.895Z,96378.83
2019-03-22T01:24:40.946Z,96378.63
2019-03-22T01:27:08.948Z,96391.09
2019-03-22T01:29:37.021Z,96380.34
2019-03-22T01:32:05.155Z,96374.20
2019-03-22T01:34:33.221Z,96379.98
2019-03-22T01:37:01.281Z,96372.50
2019-03-22T01:39:29.376Z,96373.84
2019-03-22T01:41:57.445Z,96368.66
2019-03-22T01:44:25.567Z,96369.24
2019-03-22T01:46:53.613Z,96364.45
2019-03-22T01:49:21.908Z,96368.09
2019-03-22T01:51:49.955Z,96364.63
2019-03-22T01:54:18.062Z,96366.73
2019-03-22T01:56:46.175Z,96366.16
2019-03-22T01:59:14.110Z,96365.92
2019-03-22T02:01:42.142Z,96361.91
2019-03-22T02:04:10.183Z,96366.47
2019-03-22T02:06:38.143Z,96358.83
2019-03-22T02:09:07.988Z,96365.37
2019-03-22T02:11:36.079Z,96366.91
2019-03-22T02:14:04.402Z,96367.31
2019-03-22T02:16:32.470Z,96365.19
2019-03-22T02:19:00.543Z,96365.16
2019-03-22T02:21:28.842Z,96378.03
2019-03-22T02:23:56.891Z,96373.05
2019-03-22T02:26:24.922Z,96373.41
2019-03-22T02:28:53.499Z,96372.28
2019-03-22T02:31:21.563Z,96374.18
2019-03-22T02:33:49.738Z,96374.00
2019-03-22T02:36:17.809Z,96377.88
2019-03-22T02:38:46.423Z,96376.53
2019-03-22T02:41:14.856Z,96379.41
2019-03-22T02:43:42.883Z,96384.38
2019-03-22T02:46:11.039Z,96379.60
2019-03-22T02:48:39.126Z,96379.80
2019-03-22T02:51:07.155Z,96373.22
2019-03-22T02:53:35.173Z,96391.27
2019-03-22T02:56:03.467Z,96387.98
2019-03-22T02:58:31.711Z,96389.88
2019-03-22T03:01:00.035Z,96383.71
2019-03-22T03:03:28.005Z,96395.55
2019-03-22T03:05:56.107Z,96391.01
2019-03-22T03:08:24.130Z,96389.63
2019-03-22T03:10:52.057Z,96385.04
2019-03-22T03:13:20.093Z,96388.66
2019-03-22T03:15:48.282Z,96387.48
2019-03-22T03:18:16.429Z,96380.59
2019-03-22T03:20:44.470Z,96380.55
2019-03-22T03:23:12.523Z,96376.73
2019-03-22T03:25:40.623Z,96380.59
2019-03-22T03:28:08.581Z,96376.34
2019-03-22T03:30:36.678Z,96383.28
2019-03-22T03:33:04.745Z,96382.15
2019-03-22T03:35:32.711Z,96386.41
2019-03-22T03:38:00.779Z,96385.03
2019-03-22T03:40:28.852Z,96389.44
2019-03-22T03:42:56.901Z,96391.33
2019-03-22T03:45:33.400Z,96378.48
2019-03-22T03:48:02.211Z,96384.01
2019-03-22T03:50:30.577Z,96386.14
2019-03-22T03:52:58.593Z,96380.58
2019-03-22T03:55:26.666Z,96383.39
2019-03-22T03:57:54.704Z,96383.39
2019-03-22T04:00:22.783Z,96379.95
2019-03-22T04:02:50.852Z,96389.34
2019-03-22T04:05:18.807Z,96378.43
2019-03-22T04:07:46.852Z,96388.72
2019-03-22T04:10:14.883Z,96391.90
2019-03-22T04:12:42.801Z,96396.88
2019-03-22T04:15:10.883Z,96391.56
2019-03-22T04:17:39.002Z,96391.53
2019-03-22T04:20:07.188Z,96384.27
2019-03-22T04:22:36.497Z,96383.27
2019-03-22T04:25:05.442Z,96376.56
2019-03-22T04:27:33.461Z,96387.98
2019-03-22T04:30:01.534Z,96379.28
2019-03-22T04:32:29.477Z,96387.34
2019-03-22T04:34:57.533Z,96390.56
2019-03-22T04:37:25.574Z,96393.83
2019-03-22T04:39:53.579Z,96385.27
2019-03-22T04:42:21.637Z,96392.49
2019-03-22T04:44:49.685Z,96393.34
2019-03-22T04:47:20.139Z,96397.02
2019-03-22T04:49:52.401Z,96396.61
2019-03-22T04:52:23.308Z,96403.47
2019-03-22T04:54:54.825Z,96406.11
2019-03-22T04:57:24.134Z,96405.33
2019-03-22T04:59:52.910Z,96406.55
2019-03-22T05:02:22.155Z,96404.36
2019-03-22T05:04:50.764Z,96407.33
2019-03-22T05:07:19.290Z,96409.30
2019-03-22T05:09:48.856Z,96416.96
2019-03-22T05:12:19.423Z,96419.43
2019-03-22T05:14:48.570Z,96420.39
2019-03-22T05:17:17.752Z,96421.14
2019-03-22T05:19:51.472Z,96414.66
2019-03-22T05:22:22.199Z,96413.39
2019-03-22T05:24:50.910Z,96421.67
2019-03-22T05:27:20.370Z,96417.09
2019-03-22T05:29:50.021Z,96428.07
2019-03-22T05:32:18.772Z,96423.31
2019-03-22T05:34:46.782Z,96418.73
2019-03-22T05:37:14.990Z,96423.91
2019-03-22T05:39:43.087Z,96414.49
2019-03-22T05:42:11.323Z,96419.67
2019-03-22T05:44:39.455Z,96418.52
2019-03-22T05:47:07.455Z,96415.62
2019-03-22T05:49:35.554Z,96417.54
2019-03-22T05:52:03.696Z,96416.89
2019-03-22T05:54:31.721Z,96420.34
2019-03-22T05:56:59.867Z,96412.38
2019-03-22T05:59:27.900Z,96413.78
2019-03-22T06:01:55.901Z,96421.50
2019-03-22T06:04:23.976Z,96416.88
2019-03-22T06:06:52.045Z,96412.30
2019-03-22T06:09:20.064Z,96415.52
2019-03-22T06:11:48.063Z,96416.14
2019-03-22T06:14:16.078Z,96409.77
2019-03-22T06:16:44.220Z,96407.48
2019-03-22T06:19:12.572Z,96414.73
2019-03-22T06:21:40.807Z,96411.48
2019-03-22T06:24:08.892Z,96408.05
2019-03-22T06:26:36.976Z,96417.86
2019-03-22T06:29:05.005Z,96414.71
2019-03-22T06:31:33.042Z,96410.88
2019-03-22T06:34:01.129Z,96414.14
2019-03-22T06:36:29.303Z,96415.28
2019-03-22T06:38:57.459Z,96403.68
2019-03-22T06:41:25.649Z,96401.73
2019-03-22T06:43:53.655Z,96405.11
2019-03-22T06:46:21.940Z,96408.28
2019-03-22T06:48:49.930Z,96410.48
2019-03-22T06:51:17.983Z,96404.28
2019-03-22T06:53:45.929Z,96414.43
2019-03-22T06:56:13.949Z,96407.27
2019-03-22T06:58:42.044Z,96373.19
2019-03-22T07:01:10.023Z,96410.13
2019-03-22T07:03:38.495Z,96397.55
2019-03-22T07:06:06.498Z,96409.00
2019-03-22T07:08:34.413Z,96401.55
2019-03-22T07:11:02.535Z,96397.78
2019-03-22T07:13:30.537Z,96409.33
2019-03-22T07:15:58.533Z,96403.45
2019-03-22T07:18:26.542Z,96396.71
2019-03-22T07:20:54.612Z,96398.46
2019-03-22T07:23:22.758Z,96398.66
2019-03-22T07:25:50.745Z,96396.30
2019-03-22T07:28:18.786Z,96383.91
2019-03-22T07:30:46.918Z,96392.25
2019-03-22T07:33:14.917Z,96393.53
2019-03-22T07:35:42.957Z,96389.86
2019-03-22T07:38:11.191Z,96398.44
2019-03-22T07:40:39.353Z,96399.75
2019-03-22T07:43:07.313Z,96382.72
2019-03-22T07:45:35.358Z,96382.39
2019-03-22T07:48:03.463Z,96382.02
2019-03-22T07:50:31.456Z,96379.81
2019-03-22T07:52:59.501Z,96381.97
2019-03-22T07:55:27.505Z,96372.69
2019-03-22T07:57:56.881Z,96374.62
2019-03-22T08:00:30.684Z,96376.27
2019-03-22T08:02:54.848Z,96365.64
2019-03-22T08:05:22.984Z,96366.84
2019-03-22T08:07:51.070Z,96363.70
2019-03-22T08:10:18.986Z,96363.05
2019-03-22T08:12:47.122Z,96363.42
2019-03-22T08:15:28.967Z,96353.67
2019-03-22T08:17:57.320Z,96354.12
2019-03-22T08:20:25.814Z,96352.39
2019-03-22T08:22:53.871Z,96356.75
2019-03-22T08:25:21.926Z,96349.67
2019-03-22T08:27:50.122Z,96349.92
2019-03-22T08:30:18.013Z,96342.51
2019-03-22T08:32:46.089Z,96330.98
2019-03-22T08:35:14.072Z,96342.51
2019-03-22T08:37:51.956Z,96334.87
2019-03-22T08:40:12.595Z,96335.97
2019-03-22T08:42:40.586Z,96334.53
2019-03-22T08:45:11.293Z,96330.50
2019-03-22T08:47:39.428Z,96324.94
2019-03-22T08:50:07.591Z,96331.39
2019-03-22T08:52:35.667Z,96317.88
2019-03-22T08:55:03.751Z,96324.64
2019-03-22T08:57:33.279Z,96321.80
2019-03-22T09:00:01.272Z,96322.66
2019-03-22T09:02:29.303Z,96315.30
2019-03-22T09:04:57.454Z,96296.59
2019-03-22T09:07:25.472Z,96310.14
2019-03-22T09:09:53.516Z,96296.71
2019-03-22T09:12:21.568Z,96300.03
2019-03-22T09:14:49.576Z,96289.36
2019-03-22T09:17:17.655Z,96295.23
2019-03-22T09:19:45.711Z,96299.57
2019-03-22T09:22:13.719Z,96289.13
2019-03-22T09:24:41.962Z,96288.52
2019-03-22T09:27:09.931Z,96289.16
2019-03-22T09:29:38.003Z,96275.48
2019-03-22T09:32:06.074Z,96277.16
2019-03-22T09:34:34.392Z,96273.00
2019-03-22T09:37:02.534Z,96268.84
2019-03-22T09:39:30.560Z,96270.35
2019-03-22T09:41:58.690Z,96263.08
2019-03-22T09:44:28.352Z,96266.67
2019-03-22T09:46:56.661Z,96259.30
2019-03-22T09:49:24.971Z,96263.34
2019-03-22T09:51:55.221Z,96255.58
2019-03-22T09:54:23.141Z,96252.73
2019-03-22T09:56:51.258Z,96256.55
2019-03-22T09:59:19.471Z,96241.88
2019-03-22T10:01:47.600Z,96246.72
2019-03-22T10:04:16.897Z,96240.91
2019-03-22T10:06:45.129Z,96228.50
2019-03-22T10:09:13.179Z,96231.92
2019-03-22T10:11:41.497Z,96232.30
2019-03-22T10:14:09.584Z,96239.64
2019-03-22T10:16:37.677Z,96229.36
2019-03-22T10:19:05.686Z,96230.66
2019-03-22T10:21:33.786Z,96228.44
2019-03-22T10:24:02.138Z,96226.57
2019-03-22T10:26:30.332Z,96222.45
2019-03-22T10:28:58.536Z,96225.62
2019-03-22T10:31:36.590Z,96216.04
2019-03-22T10:33:56.628Z,96186.09
2019-03-22T10:36:24.735Z,96204.86
2019-03-22T10:38:52.672Z,96200.27
2019-03-22T10:41:20.756Z,96201.05
2019-03-22T10:43:48.841Z,96196.01
2019-03-22T10:46:17.136Z,96188.91
2019-03-22T10:48:45.339Z,96194.34
2019-03-22T10:51:13.429Z,96188.34
2019-03-22T10:53:41.457Z,96188.72
2019-03-22T10:56:09.574Z,96187.20
2019-03-22T10:58:37.698Z,96181.25
2019-03-22T11:01:08.295Z,96171.09
2019-03-22T11:03:35.922Z,96166.08
2019-03-22T11:06:04.061Z,96173.20
2019-03-22T11:08:32.084Z,96163.85
2019-03-22T11:11:00.120Z,96161.52
2019-03-22T11:13:28.128Z,96153.30
2019-03-22T11:15:56.158Z,96149.98
2019-03-22T11:18:24.168Z,96149.15
2019-03-22T11:20:52.421Z,96136.28
2019-03-22T11:23:20.514Z,96132.65
2019-03-22T11:25:48.916Z,96135.09
2019-03-22T11:28:17.112Z,96128.09
2019-03-22T11:30:45.254Z,96130.84
2019-03-22T11:33:13.350Z,96124.27
2019-03-22T11:35:41.341Z,96116.11
2019-03-22T11:38:09.404Z,96109.85
2019-03-22T11:40:37.531Z,96107.73
2019-03-22T11:43:08.833Z,96098.03
2019-03-22T11:45:35.764Z,96099.22
2019-03-22T11:48:03.986Z,96092.95
2019-03-22T11:50:32.157Z,96090.16
2019-03-22T11:53:00.287Z,96085.67
2019-03-22T11:55:28.406Z,96087.41
2019-03-22T11:57:56.492Z,96089.73
2019-03-22T12:00:25.350Z,96079.72
2019-03-22T12:02:53.460Z,96082.63
2019-03-22T12:05:21.910Z,96079.03
2019-03-22T12:07:49.992Z,96074.36
2019-03-22T12:10:19.026Z,96070.61
2019-03-22T12:12:47.224Z,96073.17
2019-03-22T12:15:17.511Z,96072.17
2019-03-22T12:17:45.565Z,96058.36
2019-03-22T12:20:14.372Z,96058.41
2019-03-22T12:22:42.542Z,96062.50
2019-03-22T12:25:13.322Z,96059.57
2019-03-22T12:27:41.465Z,96050.86
2019-03-22T12:30:14.231Z,96053.48
2019-03-22T12:32:42.431Z,96050.92
2019-03-22T12:35:10.860Z,96045.95
2019-03-22T12:37:38.949Z,96033.67
2019-03-22T12:40:07.657Z,96036.44
2019-03-22T12:42:35.589Z,96026.92
2019-03-22T12:45:05.543Z,96027.84
2019-03-22T12:47:33.680Z,96031.12
2019-03-22T12:50:01.700Z,96022.86
2019-03-22T12:52:31.356Z,96022.94
2019-03-22T12:54:59.476Z,96017.27
2019-03-22T12:57:27.604Z,96017.68
2019-03-22T12:59:55.581Z,96007.89
2019-03-22T13:02:23.627Z,96008.29
2019-03-22T13:04:51.725Z,96003.81
2019-03-22T13:07:19.865Z,95999.03
2019-03-22T13:09:48.789Z,95990.77
2019-03-22T13:12:17.394Z,95982.84
2019-03-22T13:14:45.466Z,95991.27
2019-03-22T13:17:13.547Z,95989.80
2019-03-22T13:19:41.562Z,95986.20
2019-03-22T13:22:09.567Z,95982.48
2019-03-22T13:24:37.628Z,95972.27
2019-03-22T13:27:05.827Z,95970.92
2019-03-22T13:29:33.941Z,95969.28
2019-03-22T13:32:02.110Z,95964.06
2019-03-22T13:34:30.113Z,95955.56
2019-03-22T13:36:58.214Z,95951.04
2019-03-22T13:39:26.538Z,95950.41
2019-03-22T13:41:54.528Z,95948.55
2019-03-22T13:44:22.554Z,95945.38
2019-03-22T13:46:50.745Z,95851.78
2019-03-22T13:49:18.875Z,95938.47
2019-03-22T13:51:46.916Z,95931.81
2019-03-22T13:54:15.845Z,95934.12
2019-03-22T13:56:43.789Z,95934.88
2019-03-22T13:59:11.843Z,95938.59
2019-03-22T14:01:39.965Z,95925.19
2019-03-22T14:04:08.130Z,95936.06
2019-03-22T14:06:36.150Z,95933.75
2019-03-22T14:09:06.572Z,95938.41
2019-03-22T14:11:34.631Z,95922.48
2019-03-22T14:14:02.709Z,95921.01
2019-03-22T14:16:30.727Z,95925.78
2019-03-22T14:19:00.050Z,95916.34
2019-03-22T14:21:28.231Z,95918.75
2019-03-22T14:23:56.233Z,95914.16
2019-03-22T14:26:24.429Z,95917.88
2019-03-22T14:28:52.450Z,95911.19
2019-03-22T14:31:20.500Z,95904.44
2019-03-22T14:33:48.537Z,95905.50
2019-03-22T14:36:16.638Z,95909.69
2019-03-22T14:38:44.690Z,95905.38
2019-03-22T14:41:12.665Z,95899.43
2019-03-22T14:43:40.712Z,95901.14
2019-03-22T14:46:08.788Z,95903.27
2019-03-22T14:48:36.741Z,95905.34
2019-03-22T14:51:04.812Z,95901.76
2019-03-22T14:53:32.893Z,95903.03
2019-03-22T14:56:01.695Z,95888.34
2019-03-22T14:58:29.674Z,95889.83
2019-03-22T15:00:57.677Z,95893.59
2019-03-22T15:03:28.587Z,95895.28
2019-03-22T15:05:57.622Z,95888.69
2019-03-22T15:08:25.767Z,95890.42
2019-03-22T15:10:55.921Z,95890.27
2019-03-22T15:13:32.112Z,95906.11
2019-03-22T15:16:18.151Z,95898.16
2019-03-22T15:19:05.694Z,95908.59
2019-03-22T15:21:52.397Z,95916.36
2019-03-22T15:24:48.968Z,95915.20
2019-03-22T15:27:35.003Z,95912.64
2019-03-22T15:30:30.298Z,95910.33
2019-03-22T15:33:34.217Z,95905.98
2019-03-22T15:36:07.778Z,95916.92
2019-03-22T15:39:00.287Z,95922.57
2019-03-22T15:41:28.564Z,95912.57
2019-03-22T15:43:56.595Z,95920.63
2019-03-22T15:46:24.678Z,95919.76
2019-03-22T15:48:52.714Z,95911.59
2019-03-22T15:51:20.727Z,95915.25
2019-03-22T15:53:48.822Z,95926.89
2019-03-22T15:56:17.074Z,95931.30
2019-03-22T15:58:45.097Z,95922.66
2019-03-22T16:01:13.170Z,95927.37
2019-03-22T16:03:44.361Z,95942.04
2019-03-22T16:06:11.743Z,95944.30
2019-03-22T16:08:39.757Z,95941.28
2019-03-22T16:11:07.826Z,95942.03
2019-03-22T16:13:36.338Z,95938.72
2019-03-22T16:16:05.237Z,95938.25
2019-03-22T16:18:34.396Z,95945.22
2019-03-22T16:21:03.795Z,95945.34
2019-03-22T16:23:32.455Z,95942.92
2019-03-22T16:26:00.973Z,95948.81
2019-03-22T16:28:29.834Z,95935.19
2019-03-22T16:30:58.950Z,95937.73
2019-03-22T16:33:27.302Z,95943.92
2019-03-22T16:35:55.414Z,95947.40
2019-03-22T16:38:23.481Z,95940.89
2019-03-22T16:40:51.642Z,95936.79
2019-03-22T16:43:19.667Z,95941.01
2019-03-22T16:45:47.685Z,95942.80
2019-03-22T16:48:15.799Z,95959.31
2019-03-22T16:50:43.967Z,95958.52
2019-03-22T16:53:12.129Z,95951.97
2019-03-22T16:55:41.140Z,95961.73
2019-03-22T16:58:11.420Z,95958.81
2019-03-22T17:00:40.260Z,95958.30
2019-03-22T17:03:09.764Z,95949.91
2019-03-22T17:05:38.443Z,95959.93
2019-03-22T17:08:08.233Z,95956.02
2019-03-22T17:10:36.533Z,95950.38
2019-03-22T17:13:05.725Z,95959.14
2019-03-22T17:15:35.047Z,95955.95
2019-03-22T17:18:04.487Z,95954.41
2019-03-22T17:20:34.519Z,95955.77
2019-03-22T17:23:03.543Z,95959.11
2019-03-22T17:25:32.270Z,95956.39
2019-03-22T17:28:00.951Z,95955.77
2019-03-22T17:30:29.103Z,95966.77
2019-03-22T17:32:58.211Z,95960.85
2019-03-22T17:35:31.779Z,95967.35
2019-03-22T17:38:00.539Z,95958.72
2019-03-22T17:40:29.227Z,95971.25
2019-03-22T17:42:58.029Z,95962.22
2019-03-22T17:45:27.769Z,95962.66
2019-03-22T17:47:57.822Z,95957.48
2019-03-22T17:50:27.531Z,95960.02
2019-03-22T17:52:56.876Z,95967.84
2019-03-22T17:55:26.444Z,95965.71
2019-03-22T17:57:55.213Z,95973.87
2019-03-22T18:00:25.137Z,95971.98
2019-03-22T18:02:53.871Z,95971.36
2019-03-22T18:05:22.240Z,95971.63
2019-03-22T18:07:51.201Z,95975.37
2019-03-22T18:10:19.541Z,95971.25
2019-03-22T18:12:47.890Z,95976.02
2019-03-22T18:15:16.275Z,95971.28
2019-03-22T18:17:45.017Z,95973.37
2019-03-22T18:20:13.590Z,95979.81
2019-03-22T18:22:41.873Z,95973.86
2019-03-22T18:25:11.099Z,95976.37
2019-03-22T18:27:39.844Z,95987.92
2019-03-22T18:30:08.912Z,95993.13
2019-03-22T18:32:37.363Z,95992.34
2019-03-22T18:35:06.471Z,95989.88
2019-03-22T18:37:35.352Z,95990.34
2019-03-22T18:40:07.417Z,95976.44
2019-03-22T18:42:35.520Z,95978.95
2019-03-22T18:45:04.265Z,95987.09
2019-03-22T18:47:32.248Z,95977.23
2019-03-22T18:50:00.303Z,95981.79
2019-03-22T18:52:28.738Z,95981.64
2019-03-22T18:54:56.736Z,95979.92
2019-03-22T18:57:24.725Z,95977.05
2019-03-22T18:59:52.688Z,95979.44
2019-03-22T19:02:20.805Z,95978.66
2019-03-22T19:04:48.877Z,95979.87
2019-03-22T19:07:16.813Z,95976.08
2019-03-22T19:09:44.969Z,95972.72
2019-03-22T19:12:12.975Z,95980.58
2019-03-22T19:14:40.999Z,95973.89
2019-03-22T19:17:09.031Z,95979.94
2019-03-22T19:19:36.976Z,95976.02
2019-03-22T19:22:05.154Z,95977.37
2019-03-22T19:24:33.273Z,95972.51
2019-03-22T19:27:01.305Z,95986.88
2019-03-22T19:29:29.597Z,95991.02
2019-03-22T19:31:57.657Z,95980.28
2019-03-22T19:34:25.715Z,95984.21
2019-03-22T19:36:53.777Z,95988.70
2019-03-22T19:39:21.743Z,95977.12
2019-03-22T19:41:50.534Z,95978.57
2019-03-22T19:44:18.507Z,95980.95
2019-03-22T19:46:46.879Z,95974.05
2019-03-22T19:49:14.943Z,95973.11
2019-03-22T19:51:43.105Z,95978.57
2019-03-22T19:54:11.315Z,95979.33
2019-03-22T19:56:39.291Z,95977.80
2019-03-22T19:59:07.334Z,95974.95
2019-03-22T20:01:35.304Z,95976.36
2019-03-22T20:04:04.455Z,95975.42
2019-03-22T20:06:32.543Z,95980.16
2019-03-22T20:09:01.006Z,95979.95
2019-03-22T20:11:29.295Z,95983.13
2019-03-22T20:13:57.930Z,95990.80
2019-03-22T20:16:25.870Z,96013.20
2019-03-22T20:18:53.891Z,95997.67
2019-03-22T20:21:22.553Z,95990.00
2019-03-22T20:23:53.807Z,95991.32
2019-03-22T20:26:20.813Z,95987.38
2019-03-22T20:28:51.178Z,95983.67
2019-03-22T20:31:19.377Z,95981.68
2019-03-22T20:33:47.885Z,95993.30
2019-03-22T20:36:16.186Z,95985.80
2019-03-22T20:38:44.659Z,95974.83
2019-03-22T20:41:13.637Z,95981.17
2019-03-22T20:43:41.572Z,95978.08
2019-03-22T20:46:10.342Z,95983.52
2019-03-22T20:48:38.741Z,95980.14
2019-03-22T20:51:07.116Z,95981.14
2019-03-22T20:53:35.163Z,95990.97
2019-03-22T20:56:04.209Z,95982.04
2019-03-22T20:58:32.285Z,95984.75
2019-03-22T21:01:00.237Z,95981.19
2019-03-22T21:03:28.290Z,95988.16
2019-03-22T21:05:56.344Z,95980.17
2019-03-22T21:08:24.410Z,95983.16
2019-03-22T21:10:52.420Z,95990.97
2019-03-22T21:13:20.370Z,95984.06
2019-03-22T21:15:52.718Z,95981.70
2019-03-22T21:18:20.710Z,95982.45
2019-03-22T21:20:48.731Z,95982.88
2019-03-22T21:23:16.758Z,95980.76
2019-03-22T21:25:44.929Z,95980.27
2019-03-22T21:28:12.940Z,95974.51
2019-03-22T21:30:40.927Z,95980.58
2019-03-22T21:33:08.853Z,95977.59
2019-03-22T21:35:37.747Z,95985.32
2019-03-22T21:38:10.896Z,95980.26
2019-03-22T21:40:35.758Z,95982.30
2019-03-22T21:43:03.931Z,95987.48
2019-03-22T21:45:31.879Z,95993.70
2019-03-22T21:48:00.004Z,95988.50
2019-03-22T21:50:27.969Z,95991.70
2019-03-22T21:52:55.935Z,95983.23
2019-03-22T21:55:23.928Z,95996.38
2019-03-22T21:57:51.906Z,95990.70
2019-03-22T22:00:19.901Z,95998.16
2019-03-22T22:02:47.844Z,95991.20
2019-03-22T22:05:15.813Z,95992.72
2019-03-22T22:07:43.790Z,95986.42
2019-03-22T22:10:11.754Z,95996.02
2019-03-22T22:12:39.780Z,95997.13
2019-03-22T22:15:09.790Z,95989.65
2019-03-22T22:17:39.336Z,95990.55
2019-03-22T22:20:08.034Z,95995.53
2019-03-22T22:22:36.420Z,95996.40
2019-03-22T22:25:04.651Z,95994.47
2019-03-22T22:27:32.826Z,95986.13
2019-03-22T22:30:00.850Z,95996.02
2019-03-22T22:32:29.401Z,95992.80
2019-03-22T22:34:57.349Z,95999.49
2019-03-22T22:37:25.335Z,95991.03
2019-03-22T22:39:53.318Z,95995.35
2019-03-22T22:42:21.307Z,95996.96
2019-03-22T22:44:49.300Z,95995.00
2019-03-22T22:47:17.243Z,95993.86
2019-03-22T22:49:53.770Z,95993.65
2019-03-22T22:52:24.635Z,95997.58
2019-03-22T22:54:52.555Z,95990.63
2019-03-22T22:57:20.532Z,95990.19
2019-03-22T22:59:48.600Z,95981.66
2019-03-22T23:02:16.594Z,95985.22
2019-03-22T23:04:44.636Z,95984.76
2019-03-22T23:07:12.677Z,95991.26
2019-03-22T23:09:40.708Z,95989.95
2019-03-22T23:12:08.653Z,95994.25
2019-03-22T23:14:36.801Z,95999.28
2019-03-22T23:17:04.905Z,96003.98
2019-03-22T23:19:32.802Z,96001.86
2019-03-22T23:22:00.975Z,96008.36
2019-03-22T23:24:28.948Z,96007.95
2019-03-22T23:26:57.044Z,96009.30
2019-03-22T23:29:25.731Z,96009.36
2019-03-22T23:32:00.236Z,96006.77
2019-03-22T23:34:28.505Z,96008.61
2019-03-22T23:36:56.447Z,96008.83
2019-03-22T23:39:24.436Z,96001.39
2019-03-22T23:41:52.522Z,95995.54
2019-03-22T23:44:20.431Z,96005.07
2019-03-22T23:46:48.519Z,95995.16
2019-03-22T23:49:16.579Z,96003.44
2019-03-22T23:51:44.624Z,95997.39
2019-03-22T23:54:12.621Z,95999.18
2019-03-22T23:56:40.640Z,95992.23
2019-03-22T23:59:08.571Z,95988.67
